Terminal Aerodrome Forecast
Issued by NWS

Home | Current Version | Previous Version | Text Only | Print | Product List | Glossary On
Versions: 1 2 3 4 5 6 7 8 9 10 11 12 13 14 15 16 17 18 19 20 21 22 23 24 25
000
FTUS46 KSEW 110637 AAA
TAFHQM
TAF AMD
KHQM 110637Z 1107/1206 23013KT P6SM VCSH SCT030 BKN060
      TEMPO 1107/1110 6SM SHRA BKN030 OVC050
     FM111200 20009KT P6SM -SHRA BKN030 OVC050
     FM111800 22015KT P6SM -SHRA SCT018 OVC030
      TEMPO 1120/1124 22015G25KT
     FM120000 22010KT P6SM VCSH BKN035 BKN060 PROB30 1200/1206
      -SHRA=

USA.gov is the U.S. government's official web portal to all federal, state and local government web resources and services.